sensor_id;sensor_type;location;lat;lon;timestamp;temperature;humidity
30186;DHT22;31152;49.190;8.122;2022-10-31T00:01:25;12.80;99.90
30186;DHT22;31152;49.190;8.122;2022-10-31T00:03:54;12.70;99.90
30186;DHT22;31152;49.190;8.122;2022-10-31T00:06:22;12.80;99.90
30186;DHT22;31152;49.190;8.122;2022-10-31T00:08:58;12.80;99.90
30186;DHT22;31152;49.190;8.122;2022-10-31T00:11:25;12.70;99.90
30186;DHT22;31152;49.190;8.122;2022-10-31T00:13:52;12.80;99.90
30186;DHT22;31152;49.190;8.122;2022-10-31T00:16:20;12.80;99.90
30186;DHT22;31152;49.190;8.122;2022-10-31T00:18:52;12.90;99.90
30186;DHT22;31152;49.190;8.122;2022-10-31T00:21:20;12.90;99.90
30186;DHT22;31152;49.190;8.122;2022-10-31T00:23:46;12.90;99.90
30186;DHT22;31152;49.190;8.122;2022-10-31T00:26:13;12.90;99.90
30186;DHT22;31152;49.190;8.122;2022-10-31T00:28:40;12.90;99.90
30186;DHT22;31152;49.190;8.122;2022-10-31T00:31:09;12.90;99.90
30186;DHT22;31152;49.190;8.122;2022-10-31T00:33:37;12.90;99.90
30186;DHT22;31152;49.190;8.122;2022-10-31T00:36:05;12.90;99.90
30186;DHT22;31152;49.190;8.122;2022-10-31T00:38:32;12.90;99.90
30186;DHT22;31152;49.190;8.122;2022-10-31T00:40:59;12.90;99.90
30186;DHT22;31152;49.190;8.122;2022-10-31T00:43:26;12.90;99.90
30186;DHT22;31152;49.190;8.122;2022-10-31T00:45:53;12.90;99.90
30186;DHT22;31152;49.190;8.122;2022-10-31T00:48:19;12.90;99.90
30186;DHT22;31152;49.190;8.122;2022-10-31T00:50:46;12.90;99.90
30186;DHT22;31152;49.190;8.122;2022-10-31T00:53:13;12.90;99.90
30186;DHT22;31152;49.190;8.122;2022-10-31T00:55:42;13.00;99.90
30186;DHT22;31152;49.190;8.122;2022-10-31T00:58:08;13.00;99.90
30186;DHT22;31152;49.190;8.122;2022-10-31T01:00:35;13.00;99.90
30186;DHT22;31152;49.190;8.122;2022-10-31T01:03:02;13.00;99.90
30186;DHT22;31152;49.190;8.122;2022-10-31T01:05:29;13.10;99.90
30186;DHT22;31152;49.190;8.122;2022-10-31T01:08:01;13.10;99.90
30186;DHT22;31152;49.190;8.122;2022-10-31T01:10:27;13.20;99.90
30186;DHT22;31152;49.190;8.122;2022-10-31T01:12:54;13.20;99.90
30186;DHT22;31152;49.190;8.122;2022-10-31T01:15:22;13.20;99.90
30186;DHT22;31152;49.190;8.122;2022-10-31T01:17:49;13.30;99.90
30186;DHT22;31152;49.190;8.122;2022-10-31T01:20:17;13.30;99.90
30186;DHT22;31152;49.190;8.122;2022-10-31T01:22:43;13.30;99.90
30186;DHT22;31152;49.190;8.122;2022-10-31T01:25:10;13.40;99.90
30186;DHT22;31152;49.190;8.122;2022-10-31T01:27:37;13.40;99.90
30186;DHT22;31152;49.190;8.122;2022-10-31T01:30:05;13.40;99.90
30186;DHT22;31152;49.190;8.122;2022-10-31T01:32:32;13.40;99.90
30186;DHT22;31152;49.190;8.122;2022-10-31T01:35:01;13.40;99.90
30186;DHT22;31152;49.190;8.122;2022-10-31T01:37:27;13.50;99.90
30186;DHT22;31152;49.190;8.122;2022-10-31T01:39:56;13.50;99.90
30186;DHT22;31152;49.190;8.122;2022-10-31T01:42:23;13.50;99.90
30186;DHT22;31152;49.190;8.122;2022-10-31T01:44:56;13.50;99.90
30186;DHT22;31152;49.190;8.122;2022-10-31T01:47:30;13.60;99.90
30186;DHT22;31152;49.190;8.122;2022-10-31T01:50:00;13.60;99.90
30186;DHT22;31152;49.190;8.122;2022-10-31T01:52:36;13.60;99.90
30186;DHT22;31152;49.190;8.122;2022-10-31T01:55:20;13.60;99.90
30186;DHT22;31152;49.190;8.122;2022-10-31T01:57:55;13.60;99.90
30186;DHT22;31152;49.190;8.122;2022-10-31T02:00:24;13.60;99.90
30186;DHT22;31152;49.190;8.122;2022-10-31T02:02:51;13.50;99.90
30186;DHT22;31152;49.190;8.122;2022-10-31T02:05:20;13.50;99.90
30186;DHT22;31152;49.190;8.122;2022-10-31T02:08:08;13.50;99.90
30186;DHT22;31152;49.190;8.122;2022-10-31T02:10:36;13.50;99.90
30186;DHT22;31152;49.190;8.122;2022-10-31T02:13:09;13.50;99.90
30186;DHT22;31152;49.190;8.122;2022-10-31T02:15:40;13.50;99.90
30186;DHT22;31152;49.190;8.122;2022-10-31T02:18:07;13.40;99.90
30186;DHT22;31152;49.190;8.122;2022-10-31T02:20:52;13.40;99.90
30186;DHT22;31152;49.190;8.122;2022-10-31T02:24:05;13.40;99.90
30186;DHT22;31152;49.190;8.122;2022-10-31T02:43:00;13.40;99.90
30186;DHT22;31152;49.190;8.122;2022-10-31T02:45:36;13.40;99.90
30186;DHT22;31152;49.190;8.122;2022-10-31T02:48:10;13.40;99.90
30186;DHT22;31152;49.190;8.122;2022-10-31T02:50:42;13.30;99.90
30186;DHT22;31152;49.190;8.122;2022-10-31T02:53:14;13.20;99.90
30186;DHT22;31152;49.190;8.122;2022-10-31T02:55:58;13.20;99.90
30186;DHT22;31152;49.190;8.122;2022-10-31T02:58:30;13.10;99.90
30186;DHT22;31152;49.190;8.122;2022-10-31T03:01:25;13.10;99.90
30186;DHT22;31152;49.190;8.122;2022-10-31T03:07:07;13.00;99.90
30186;DHT22;31152;49.190;8.122;2022-10-31T03:17:49;12.90;99.90
30186;DHT22;31152;49.190;8.122;2022-10-31T03:20:13;12.90;99.90
30186;DHT22;31152;49.190;8.122;2022-10-31T03:22:42;12.90;99.90
30186;DHT22;31152;49.190;8.122;2022-10-31T03:25:13;12.90;99.90
30186;DHT22;31152;49.190;8.122;2022-10-31T03:27:44;12.80;99.90
30186;DHT22;31152;49.190;8.122;2022-10-31T03:30:12;12.80;99.90
30186;DHT22;31152;49.190;8.122;2022-10-31T03:32:54;12.80;99.90
30186;DHT22;31152;49.190;8.122;2022-10-31T03:35:24;12.80;99.90
30186;DHT22;31152;49.190;8.122;2022-10-31T03:37:54;12.80;99.90
30186;DHT22;31152;49.190;8.122;2022-10-31T03:40:26;12.70;99.90
30186;DHT22;31152;49.190;8.122;2022-10-31T03:42:58;12.70;99.90
30186;DHT22;31152;49.190;8.122;2022-10-31T03:45:30;12.70;99.90
30186;DHT22;31152;49.190;8.122;2022-10-31T03:47:58;12.70;99.90
30186;DHT22;31152;49.190;8.122;2022-10-31T03:50:38;12.60;99.90
30186;DHT22;31152;49.190;8.122;2022-10-31T03:53:11;12.60;99.90
30186;DHT22;31152;49.190;8.122;2022-10-31T03:58:43;12.50;99.90
30186;DHT22;31152;49.190;8.122;2022-10-31T04:01:19;12.50;99.90
30186;DHT22;31152;49.190;8.122;2022-10-31T04:03:48;12.50;99.90
30186;DHT22;31152;49.190;8.122;2022-10-31T04:06:17;12.40;99.90
30186;DHT22;31152;49.190;8.122;2022-10-31T04:08:57;12.40;99.90
30186;DHT22;31152;49.190;8.122;2022-10-31T04:11:30;12.40;99.90
30186;DHT22;31152;49.190;8.122;2022-10-31T04:13:59;12.30;99.90
30186;DHT22;31152;49.190;8.122;2022-10-31T04:16:27;12.30;99.90
30186;DHT22;31152;49.190;8.122;2022-10-31T04:18:54;12.20;99.90
30186;DHT22;31152;49.190;8.122;2022-10-31T04:21:27;12.20;99.90
30186;DHT22;31152;49.190;8.122;2022-10-31T04:23:55;12.20;99.90
30186;DHT22;31152;49.190;8.122;2022-10-31T04:26:24;12.20;99.90
30186;DHT22;31152;49.190;8.122;2022-10-31T04:28:51;12.20;99.90
30186;DHT22;31152;49.190;8.122;2022-10-31T04:31:18;12.20;99.90
30186;DHT22;31152;49.190;8.122;2022-10-31T04:33:45;12.10;99.90
30186;DHT22;31152;49.190;8.122;2022-10-31T04:36:14;12.20;99.90
30186;DHT22;31152;49.190;8.122;2022-10-31T04:38:40;12.20;99.90
30186;DHT22;31152;49.190;8.122;2022-10-31T04:41:12;12.10;99.90
30186;DHT22;31152;49.190;8.122;2022-10-31T04:43:39;12.20;99.90
30186;DHT22;31152;49.190;8.122;2022-10-31T04:46:07;12.10;99.90
30186;DHT22;31152;49.190;8.122;2022-10-31T04:48:34;12.10;99.90
30186;DHT22;31152;49.190;8.122;2022-10-31T04:51:03;12.10;99.90
30186;DHT22;31152;49.190;8.122;2022-10-31T04:53:34;12.00;99.90
30186;DHT22;31152;49.190;8.122;2022-10-31T04:56:04;12.10;99.90
30186;DHT22;31152;49.190;8.122;2022-10-31T04:58:31;12.10;99.90
30186;DHT22;31152;49.190;8.122;2022-10-31T05:00:57;12.00;99.90
30186;DHT22;31152;49.190;8.122;2022-10-31T05:03:24;12.00;99.90
30186;DHT22;31152;49.190;8.122;2022-10-31T05:05:53;12.00;99.90
30186;DHT22;31152;49.190;8.122;2022-10-31T05:08:22;11.90;99.90
30186;DHT22;31152;49.190;8.122;2022-10-31T05:10:49;11.90;99.90
30186;DHT22;31152;49.190;8.122;2022-10-31T05:13:18;11.90;99.90
30186;DHT22;31152;49.190;8.122;2022-10-31T05:15:49;11.90;99.90
30186;DHT22;31152;49.190;8.122;2022-10-31T05:18:16;11.90;99.90
30186;DHT22;31152;49.190;8.122;2022-10-31T05:20:42;11.90;99.90
30186;DHT22;31152;49.190;8.122;2022-10-31T05:23:09;11.80;99.90
30186;DHT22;31152;49.190;8.122;2022-10-31T05:25:36;11.80;99.90
30186;DHT22;31152;49.190;8.122;2022-10-31T05:28:05;11.80;99.90
30186;DHT22;31152;49.190;8.122;2022-10-31T05:30:32;11.80;99.90
30186;DHT22;31152;49.190;8.122;2022-10-31T05:33:01;11.80;99.90
30186;DHT22;31152;49.190;8.122;2022-10-31T05:35:30;11.70;99.90
30186;DHT22;31152;49.190;8.122;2022-10-31T05:37:58;11.70;99.90
30186;DHT22;31152;49.190;8.122;2022-10-31T05:40:27;11.70;99.90
30186;DHT22;31152;49.190;8.122;2022-10-31T05:42:55;11.60;99.90
30186;DHT22;31152;49.190;8.122;2022-10-31T05:45:23;11.70;99.90
30186;DHT22;31152;49.190;8.122;2022-10-31T05:47:55;11.60;99.90
30186;DHT22;31152;49.190;8.122;2022-10-31T05:50:24;11.60;99.90
30186;DHT22;31152;49.190;8.122;2022-10-31T05:52:55;11.60;99.90
30186;DHT22;31152;49.190;8.122;2022-10-31T05:55:23;11.60;99.90
30186;DHT22;31152;49.190;8.122;2022-10-31T05:57:50;11.60;99.90
30186;DHT22;31152;49.190;8.122;2022-10-31T06:00:17;11.60;99.90
30186;DHT22;31152;49.190;8.122;2022-10-31T06:02:44;11.50;99.90
30186;DHT22;31152;49.190;8.122;2022-10-31T06:05:11;11.50;99.90
30186;DHT22;31152;49.190;8.122;2022-10-31T06:07:38;11.50;99.90
30186;DHT22;31152;49.190;8.122;2022-10-31T06:10:07;11.50;99.90
30186;DHT22;31152;49.190;8.122;2022-10-31T06:12:34;11.50;99.90
30186;DHT22;31152;49.190;8.122;2022-10-31T06:15:08;11.50;99.90
30186;DHT22;31152;49.190;8.122;2022-10-31T06:17:35;11.50;99.90
30186;DHT22;31152;49.190;8.122;2022-10-31T06:20:02;11.60;99.90
30186;DHT22;31152;49.190;8.122;2022-10-31T06:22:29;11.60;99.90
30186;DHT22;31152;49.190;8.122;2022-10-31T06:24:56;11.50;99.90
30186;DHT22;31152;49.190;8.122;2022-10-31T06:27:25;11.60;99.90
30186;DHT22;31152;49.190;8.122;2022-10-31T06:29:52;11.60;99.90
30186;DHT22;31152;49.190;8.122;2022-10-31T06:32:19;11.60;99.90
30186;DHT22;31152;49.190;8.122;2022-10-31T06:34:46;11.60;99.90
30186;DHT22;31152;49.190;8.122;2022-10-31T06:37:15;11.70;99.90
30186;DHT22;31152;49.190;8.122;2022-10-31T06:39:42;11.70;99.90
30186;DHT22;31152;49.190;8.122;2022-10-31T06:42:09;11.70;99.90
30186;DHT22;31152;49.190;8.122;2022-10-31T06:44:36;11.80;99.90
30186;DHT22;31152;49.190;8.122;2022-10-31T06:47:05;11.80;99.90
30186;DHT22;31152;49.190;8.122;2022-10-31T06:49:32;11.80;99.90
30186;DHT22;31152;49.190;8.122;2022-10-31T06:51:58;11.90;99.90
30186;DHT22;31152;49.190;8.122;2022-10-31T06:54:25;12.00;99.90
30186;DHT22;31152;49.190;8.122;2022-10-31T06:56:52;12.00;99.90
30186;DHT22;31152;49.190;8.122;2022-10-31T06:59:20;12.10;99.90
30186;DHT22;31152;49.190;8.122;2022-10-31T07:01:47;12.20;99.90
30186;DHT22;31152;49.190;8.122;2022-10-31T07:04:14;12.20;99.90
30186;DHT22;31152;49.190;8.122;2022-10-31T07:06:41;12.30;99.90
30186;DHT22;31152;49.190;8.122;2022-10-31T07:09:08;12.40;99.90
30186;DHT22;31152;49.190;8.122;2022-10-31T07:11:36;12.40;99.90
30186;DHT22;31152;49.190;8.122;2022-10-31T07:14:03;12.50;99.90
30186;DHT22;31152;49.190;8.122;2022-10-31T07:16:30;12.50;99.90
30186;DHT22;31152;49.190;8.122;2022-10-31T07:18:57;12.60;99.90
30186;DHT22;31152;49.190;8.122;2022-10-31T07:21:23;12.70;99.90
30186;DHT22;31152;49.190;8.122;2022-10-31T07:23:50;12.80;99.90
30186;DHT22;31152;49.190;8.122;2022-10-31T07:26:17;12.90;99.90
30186;DHT22;31152;49.190;8.122;2022-10-31T07:28:45;13.00;99.90
30186;DHT22;31152;49.190;8.122;2022-10-31T07:31:12;13.10;99.90
30186;DHT22;31152;49.190;8.122;2022-10-31T07:33:38;13.20;99.90
30186;DHT22;31152;49.190;8.122;2022-10-31T07:36:05;13.30;99.90
30186;DHT22;31152;49.190;8.122;2022-10-31T07:38:35;13.40;99.90
30186;DHT22;31152;49.190;8.122;2022-10-31T07:41:01;13.60;99.90
30186;DHT22;31152;49.190;8.122;2022-10-31T07:43:30;13.60;99.90
30186;DHT22;31152;49.190;8.122;2022-10-31T07:45:57;13.80;99.90
30186;DHT22;31152;49.190;8.122;2022-10-31T07:48:24;13.90;99.90
30186;DHT22;31152;49.190;8.122;2022-10-31T07:50:50;14.00;99.90
30186;DHT22;31152;49.190;8.122;2022-10-31T07:53:17;14.20;99.90
30186;DHT22;31152;49.190;8.122;2022-10-31T07:55:44;14.30;99.90
30186;DHT22;31152;49.190;8.122;2022-10-31T07:58:13;14.40;99.90
30186;DHT22;31152;49.190;8.122;2022-10-31T08:00:42;14.60;99.90
30186;DHT22;31152;49.190;8.122;2022-10-31T08:03:13;14.70;99.90
30186;DHT22;31152;49.190;8.122;2022-10-31T08:05:41;14.80;99.90
30186;DHT22;31152;49.190;8.122;2022-10-31T08:08:08;15.00;99.90
30186;DHT22;31152;49.190;8.122;2022-10-31T08:10:35;15.10;99.90
30186;DHT22;31152;49.190;8.122;2022-10-31T08:13:05;15.20;99.90
30186;DHT22;31152;49.190;8.122;2022-10-31T08:15:35;15.20;99.90
30186;DHT22;31152;49.190;8.122;2022-10-31T08:18:05;15.30;99.90
30186;DHT22;31152;49.190;8.122;2022-10-31T08:20:32;15.40;99.90
30186;DHT22;31152;49.190;8.122;2022-10-31T08:23:01;15.40;99.90
30186;DHT22;31152;49.190;8.122;2022-10-31T08:25:31;15.50;99.90
30186;DHT22;31152;49.190;8.122;2022-10-31T08:28:05;15.50;99.90
30186;DHT22;31152;49.190;8.122;2022-10-31T08:30:34;15.60;99.90
30186;DHT22;31152;49.190;8.122;2022-10-31T08:35:33;15.80;99.90
30186;DHT22;31152;49.190;8.122;2022-10-31T08:38:00;15.90;99.90
30186;DHT22;31152;49.190;8.122;2022-10-31T08:40:29;16.00;99.90
30186;DHT22;31152;49.190;8.122;2022-10-31T08:43:01;16.10;99.90
30186;DHT22;31152;49.190;8.122;2022-10-31T08:45:30;16.20;99.90
30186;DHT22;31152;49.190;8.122;2022-10-31T08:47:59;16.30;99.90
30186;DHT22;31152;49.190;8.122;2022-10-31T08:50:27;16.40;99.90
30186;DHT22;31152;49.190;8.122;2022-10-31T08:53:04;16.60;99.90
30186;DHT22;31152;49.190;8.122;2022-10-31T08:55:36;16.70;99.90
30186;DHT22;31152;49.190;8.122;2022-10-31T08:58:06;16.80;99.90
30186;DHT22;31152;49.190;8.122;2022-10-31T09:00:37;16.90;99.90
30186;DHT22;31152;49.190;8.122;2022-10-31T09:03:12;17.00;99.90
30186;DHT22;31152;49.190;8.122;2022-10-31T09:05:40;17.10;99.90
30186;DHT22;31152;49.190;8.122;2022-10-31T09:08:07;17.20;99.90
30186;DHT22;31152;49.190;8.122;2022-10-31T09:10:45;17.30;99.90
30186;DHT22;31152;49.190;8.122;2022-10-31T09:13:17;17.40;99.90
30186;DHT22;31152;49.190;8.122;2022-10-31T09:15:45;17.40;99.90
30186;DHT22;31152;49.190;8.122;2022-10-31T09:18:16;17.50;99.90
30186;DHT22;31152;49.190;8.122;2022-10-31T09:20:44;17.60;99.90
30186;DHT22;31152;49.190;8.122;2022-10-31T09:23:14;17.70;99.90
30186;DHT22;31152;49.190;8.122;2022-10-31T09:25:42;17.70;99.90
30186;DHT22;31152;49.190;8.122;2022-10-31T09:28:17;17.70;99.90
30186;DHT22;31152;49.190;8.122;2022-10-31T09:30:49;17.80;99.90
30186;DHT22;31152;49.190;8.122;2022-10-31T09:33:17;17.90;99.90
30186;DHT22;31152;49.190;8.122;2022-10-31T09:35:44;18.00;99.90
30186;DHT22;31152;49.190;8.122;2022-10-31T09:38:22;18.10;99.90
30186;DHT22;31152;49.190;8.122;2022-10-31T09:52:17;19.00;99.90
30186;DHT22;31152;49.190;8.122;2022-10-31T09:55:35;19.20;99.90
30186;DHT22;31152;49.190;8.122;2022-10-31T09:57:37;19.50;99.90
30186;DHT22;31152;49.190;8.122;2022-10-31T10:00:07;19.80;99.90
30186;DHT22;31152;49.190;8.122;2022-10-31T10:02:41;20.00;99.90
30186;DHT22;31152;49.190;8.122;2022-10-31T10:05:17;20.20;99.90
30186;DHT22;31152;49.190;8.122;2022-10-31T10:08:10;20.40;99.90
30186;DHT22;31152;49.190;8.122;2022-10-31T10:10:50;20.50;99.90
30186;DHT22;31152;49.190;8.122;2022-10-31T10:19:44;20.90;99.90
30186;DHT22;31152;49.190;8.122;2022-10-31T10:22:27;21.10;99.90
30186;DHT22;31152;49.190;8.122;2022-10-31T10:28:25;21.60;99.90
30186;DHT22;31152;49.190;8.122;2022-10-31T10:31:08;22.00;99.90
30186;DHT22;31152;49.190;8.122;2022-10-31T10:33:40;22.40;99.90
30186;DHT22;31152;49.190;8.122;2022-10-31T10:36:41;22.70;99.90
30186;DHT22;31152;49.190;8.122;2022-10-31T10:41:45;22.90;99.90
30186;DHT22;31152;49.190;8.122;2022-10-31T10:44:13;23.00;99.90
30186;DHT22;31152;49.190;8.122;2022-10-31T10:46:45;22.90;99.90
30186;DHT22;31152;49.190;8.122;2022-10-31T10:58:09;22.10;99.90
30186;DHT22;31152;49.190;8.122;2022-10-31T11:00:44;22.10;99.90
30186;DHT22;31152;49.190;8.122;2022-10-31T11:03:17;22.20;99.90
30186;DHT22;31152;49.190;8.122;2022-10-31T11:05:48;22.20;99.90
30186;DHT22;31152;49.190;8.122;2022-10-31T11:08:29;22.30;99.90
30186;DHT22;31152;49.190;8.122;2022-10-31T11:13:46;22.20;99.90
30186;DHT22;31152;49.190;8.122;2022-10-31T11:16:36;22.20;99.90
30186;DHT22;31152;49.190;8.122;2022-10-31T11:19:17;22.00;99.90
30186;DHT22;31152;49.190;8.122;2022-10-31T11:21:45;21.60;99.90
30186;DHT22;31152;49.190;8.122;2022-10-31T11:24:20;21.60;99.90
30186;DHT22;31152;49.190;8.122;2022-10-31T11:26:49;21.40;99.90
30186;DHT22;31152;49.190;8.122;2022-10-31T11:31:47;21.10;99.90
30186;DHT22;31152;49.190;8.122;2022-10-31T11:36:48;20.40;99.90
30186;DHT22;31152;49.190;8.122;2022-10-31T11:39:21;20.30;99.90
30186;DHT22;31152;49.190;8.122;2022-10-31T11:41:52;20.20;99.90
30186;DHT22;31152;49.190;8.122;2022-10-31T11:44:26;20.10;99.90
30186;DHT22;31152;49.190;8.122;2022-10-31T11:46:59;20.10;99.90
30186;DHT22;31152;49.190;8.122;2022-10-31T11:49:36;20.00;99.90
30186;DHT22;31152;49.190;8.122;2022-10-31T11:52:19;19.90;99.90
30186;DHT22;31152;49.190;8.122;2022-10-31T11:57:26;19.80;99.90
30186;DHT22;31152;49.190;8.122;2022-10-31T11:59:56;19.70;99.90
30186;DHT22;31152;49.190;8.122;2022-10-31T12:02:24;19.80;99.90
30186;DHT22;31152;49.190;8.122;2022-10-31T12:05:01;19.70;99.90
30186;DHT22;31152;49.190;8.122;2022-10-31T12:07:29;19.60;99.90
30186;DHT22;31152;49.190;8.122;2022-10-31T12:09:56;19.60;99.90
30186;DHT22;31152;49.190;8.122;2022-10-31T12:12:33;19.60;99.90
30186;DHT22;31152;49.190;8.122;2022-10-31T12:18:33;19.50;99.90
30186;DHT22;31152;49.190;8.122;2022-10-31T12:21:24;19.50;99.90
30186;DHT22;31152;49.190;8.122;2022-10-31T12:38:57;19.10;99.90
30186;DHT22;31152;49.190;8.122;2022-10-31T12:41:21;19.10;99.90
30186;DHT22;31152;49.190;8.122;2022-10-31T12:47:09;19.10;99.90
30186;DHT22;31152;49.190;8.122;2022-10-31T12:49:54;19.20;99.90
30186;DHT22;31152;49.190;8.122;2022-10-31T12:57:52;19.30;99.90
30186;DHT22;31152;49.190;8.122;2022-10-31T13:00:24;19.60;99.90
30186;DHT22;31152;49.190;8.122;2022-10-31T13:08:12;24.80;99.90
30186;DHT22;31152;49.190;8.122;2022-10-31T13:11:10;26.50;99.40
30186;DHT22;31152;49.190;8.122;2022-10-31T13:16:24;28.40;94.00
30186;DHT22;31152;49.190;8.122;2022-10-31T13:24:30;30.80;86.90
30186;DHT22;31152;49.190;8.122;2022-10-31T13:26:59;31.80;81.40
30186;DHT22;31152;49.190;8.122;2022-10-31T13:29:33;32.30;78.10
30186;DHT22;31152;49.190;8.122;2022-10-31T13:32:06;33.00;74.30
30186;DHT22;31152;49.190;8.122;2022-10-31T13:34:39;33.50;69.70
30186;DHT22;31152;49.190;8.122;2022-10-31T13:45:22;33.30;64.30
30186;DHT22;31152;49.190;8.122;2022-10-31T13:48:00;32.30;64.30
30186;DHT22;31152;49.190;8.122;2022-10-31T13:50:30;31.20;66.80
30186;DHT22;31152;49.190;8.122;2022-10-31T13:53:11;30.00;70.50
30186;DHT22;31152;49.190;8.122;2022-10-31T13:55:44;28.80;74.20
30186;DHT22;31152;49.190;8.122;2022-10-31T13:58:38;27.80;77.60
30186;DHT22;31152;49.190;8.122;2022-10-31T14:03:40;26.50;83.30
30186;DHT22;31152;49.190;8.122;2022-10-31T14:06:56;26.00;84.60
30186;DHT22;31152;49.190;8.122;2022-10-31T14:11:59;25.00;88.30
30186;DHT22;31152;49.190;8.122;2022-10-31T14:14:39;24.60;90.10
30186;DHT22;31152;49.190;8.122;2022-10-31T14:17:20;24.10;90.70
30186;DHT22;31152;49.190;8.122;2022-10-31T14:20:00;23.60;91.50
30186;DHT22;31152;49.190;8.122;2022-10-31T14:22:32;23.10;92.80
30186;DHT22;31152;49.190;8.122;2022-10-31T14:25:31;22.70;93.40
30186;DHT22;31152;49.190;8.122;2022-10-31T14:28:00;22.40;94.20
30186;DHT22;31152;49.190;8.122;2022-10-31T14:30:29;22.10;95.40
30186;DHT22;31152;49.190;8.122;2022-10-31T14:33:02;21.80;96.30
30186;DHT22;31152;49.190;8.122;2022-10-31T14:52:08;20.40;99.90
30186;DHT22;31152;49.190;8.122;2022-10-31T14:54:41;20.20;99.90
30186;DHT22;31152;49.190;8.122;2022-10-31T14:57:37;20.10;99.90
30186;DHT22;31152;49.190;8.122;2022-10-31T15:00:15;20.00;99.90
30186;DHT22;31152;49.190;8.122;2022-10-31T15:03:04;19.80;99.90
30186;DHT22;31152;49.190;8.122;2022-10-31T15:05:34;19.70;99.90
30186;DHT22;31152;49.190;8.122;2022-10-31T15:08:01;19.70;99.90
30186;DHT22;31152;49.190;8.122;2022-10-31T15:10:32;19.60;99.90
30186;DHT22;31152;49.190;8.122;2022-10-31T15:13:19;19.50;99.90
30186;DHT22;31152;49.190;8.122;2022-10-31T15:15:50;19.40;99.90
30186;DHT22;31152;49.190;8.122;2022-10-31T15:18:26;19.40;99.90
30186;DHT22;31152;49.190;8.122;2022-10-31T15:20:55;19.30;99.90
30186;DHT22;31152;49.190;8.122;2022-10-31T15:23:28;19.20;99.90
30186;DHT22;31152;49.190;8.122;2022-10-31T15:26:00;19.10;99.90
30186;DHT22;31152;49.190;8.122;2022-10-31T15:28:28;19.00;99.90
30186;DHT22;31152;49.190;8.122;2022-10-31T15:30:57;18.90;99.90
30186;DHT22;31152;49.190;8.122;2022-10-31T15:33:30;18.80;99.90
30186;DHT22;31152;49.190;8.122;2022-10-31T15:36:05;18.70;99.90
30186;DHT22;31152;49.190;8.122;2022-10-31T15:38:31;18.70;99.90
30186;DHT22;31152;49.190;8.122;2022-10-31T15:41:06;18.60;99.90
30186;DHT22;31152;49.190;8.122;2022-10-31T15:43:46;18.60;99.90
30186;DHT22;31152;49.190;8.122;2022-10-31T15:46:15;18.50;99.90
30186;DHT22;31152;49.190;8.122;2022-10-31T15:48:47;18.30;99.90
30186;DHT22;31152;49.190;8.122;2022-10-31T15:51:16;18.10;99.90
30186;DHT22;31152;49.190;8.122;2022-10-31T15:53:49;17.90;99.90
30186;DHT22;31152;49.190;8.122;2022-10-31T15:56:22;17.80;99.90
30186;DHT22;31152;49.190;8.122;2022-10-31T15:58:51;17.80;99.90
30186;DHT22;31152;49.190;8.122;2022-10-31T16:01:38;17.60;99.90
30186;DHT22;31152;49.190;8.122;2022-10-31T16:04:22;17.50;99.90
30186;DHT22;31152;49.190;8.122;2022-10-31T16:06:57;17.40;99.90
30186;DHT22;31152;49.190;8.122;2022-10-31T16:09:24;17.40;99.90
30186;DHT22;31152;49.190;8.122;2022-10-31T16:11:51;17.40;99.90
30186;DHT22;31152;49.190;8.122;2022-10-31T16:14:22;17.40;99.90
30186;DHT22;31152;49.190;8.122;2022-10-31T16:16:53;17.30;99.90
30186;DHT22;31152;49.190;8.122;2022-10-31T16:19:32;17.30;99.90
30186;DHT22;31152;49.190;8.122;2022-10-31T16:22:05;17.30;99.90
30186;DHT22;31152;49.190;8.122;2022-10-31T16:27:25;17.20;99.90
30186;DHT22;31152;49.190;8.122;2022-10-31T16:29:56;17.10;99.90
30186;DHT22;31152;49.190;8.122;2022-10-31T16:37:40;17.00;99.90
30186;DHT22;31152;49.190;8.122;2022-10-31T16:40:11;17.00;99.90
30186;DHT22;31152;49.190;8.122;2022-10-31T16:42:40;17.00;99.90
30186;DHT22;31152;49.190;8.122;2022-10-31T16:45:08;16.90;99.90
30186;DHT22;31152;49.190;8.122;2022-10-31T16:47:42;16.90;99.90
30186;DHT22;31152;49.190;8.122;2022-10-31T16:50:29;16.80;99.90
30186;DHT22;31152;49.190;8.122;2022-10-31T16:52:58;16.70;99.90
30186;DHT22;31152;49.190;8.122;2022-10-31T16:58:18;16.60;99.90
30186;DHT22;31152;49.190;8.122;2022-10-31T17:00:48;16.60;99.90
30186;DHT22;31152;49.190;8.122;2022-10-31T17:03:15;16.50;99.90
30186;DHT22;31152;49.190;8.122;2022-10-31T17:05:41;16.50;99.90
30186;DHT22;31152;49.190;8.122;2022-10-31T17:08:08;16.40;99.90
30186;DHT22;31152;49.190;8.122;2022-10-31T17:10:38;16.40;99.90
30186;DHT22;31152;49.190;8.122;2022-10-31T17:13:08;16.40;99.90
30186;DHT22;31152;49.190;8.122;2022-10-31T17:15:44;16.30;99.90
30186;DHT22;31152;49.190;8.122;2022-10-31T17:18:13;16.20;99.90
30186;DHT22;31152;49.190;8.122;2022-10-31T17:20:40;16.10;99.90
30186;DHT22;31152;49.190;8.122;2022-10-31T17:23:12;16.10;99.90
30186;DHT22;31152;49.190;8.122;2022-10-31T17:25:40;16.00;99.90
30186;DHT22;31152;49.190;8.122;2022-10-31T17:28:07;15.80;99.90
30186;DHT22;31152;49.190;8.122;2022-10-31T17:30:37;15.70;99.90
30186;DHT22;31152;49.190;8.122;2022-10-31T17:33:06;15.60;99.90
30186;DHT22;31152;49.190;8.122;2022-10-31T17:35:32;15.60;99.90
30186;DHT22;31152;49.190;8.122;2022-10-31T17:37:59;15.50;99.90
30186;DHT22;31152;49.190;8.122;2022-10-31T17:40:30;15.30;99.90
30186;DHT22;31152;49.190;8.122;2022-10-31T17:42:57;15.30;99.90
30186;DHT22;31152;49.190;8.122;2022-10-31T17:45:26;15.20;99.90
30186;DHT22;31152;49.190;8.122;2022-10-31T17:47:53;15.20;99.90
30186;DHT22;31152;49.190;8.122;2022-10-31T17:50:24;15.20;99.90
30186;DHT22;31152;49.190;8.122;2022-10-31T17:52:51;15.10;99.90
30186;DHT22;31152;49.190;8.122;2022-10-31T17:55:18;15.10;99.90
30186;DHT22;31152;49.190;8.122;2022-10-31T17:57:47;15.10;99.90
30186;DHT22;31152;49.190;8.122;2022-10-31T18:00:18;15.00;99.90
30186;DHT22;31152;49.190;8.122;2022-10-31T18:02:46;14.90;99.90
30186;DHT22;31152;49.190;8.122;2022-10-31T18:05:13;14.80;99.90
30186;DHT22;31152;49.190;8.122;2022-10-31T18:07:40;14.80;99.90
30186;DHT22;31152;49.190;8.122;2022-10-31T18:10:10;14.70;99.90
30186;DHT22;31152;49.190;8.122;2022-10-31T18:12:40;14.70;99.90
30186;DHT22;31152;49.190;8.122;2022-10-31T18:15:09;14.60;99.90
30186;DHT22;31152;49.190;8.122;2022-10-31T18:17:38;14.60;99.90
30186;DHT22;31152;49.190;8.122;2022-10-31T18:20:08;14.60;99.90
30186;DHT22;31152;49.190;8.122;2022-10-31T18:22:35;14.60;99.90
30186;DHT22;31152;49.190;8.122;2022-10-31T18:25:05;14.60;99.90
30186;DHT22;31152;49.190;8.122;2022-10-31T18:27:32;14.60;99.90
30186;DHT22;31152;49.190;8.122;2022-10-31T18:29:58;14.60;99.90
30186;DHT22;31152;49.190;8.122;2022-10-31T18:32:25;14.50;99.90